createdAt,value
2023-03-28T00:00:34.109Z,1.5
2023-03-28T00:01:50.393Z,1.2
2023-03-28T00:03:06.692Z,1.3
2023-03-28T00:04:22.985Z,1.2
2023-03-28T00:05:39.284Z,1.3
2023-03-28T00:06:55.574Z,1.1
2023-03-28T00:08:11.859Z,1.5
2023-03-28T00:09:28.170Z,1.3
2023-03-28T00:10:44.449Z,1.5
2023-03-28T00:12:00.751Z,0.9
2023-03-28T00:13:17.039Z,1.3
2023-03-28T00:14:33.331Z,1.2
2023-03-28T00:15:48.650Z,1.1
2023-03-28T00:17:04.932Z,1.1
2023-03-28T00:18:21.241Z,1.1
2023-03-28T00:19:37.535Z,1
2023-03-28T00:20:53.824Z,1.2
2023-03-28T00:22:10.124Z,1.1
2023-03-28T00:23:26.412Z,1.4
2023-03-28T00:24:42.703Z,1.2
2023-03-28T00:25:58.998Z,1.6
2023-03-28T00:27:15.284Z,1.1
2023-03-28T00:28:31.582Z,1.2
2023-03-28T00:29:47.886Z,0.9
2023-03-28T00:31:04.182Z,1
2023-03-28T00:32:19.479Z,1.2
2023-03-28T00:33:35.783Z,1.1
2023-03-28T00:34:52.072Z,2.1
2023-03-28T00:36:08.356Z,1.2
2023-03-28T00:37:24.663Z,1.1
2023-03-28T00:38:40.944Z,1
2023-03-28T00:39:57.238Z,1.1
2023-03-28T00:41:13.548Z,1.2
2023-03-28T00:42:29.825Z,1.1
2023-03-28T00:43:46.131Z,1.2
2023-03-28T00:45:02.416Z,1.1
2023-03-28T00:46:18.724Z,1.3
2023-03-28T00:47:35.013Z,1.2
2023-03-28T00:48:50.314Z,1.4
2023-03-28T00:50:06.606Z,1.6
2023-03-28T00:51:22.908Z,1.3
2023-03-28T00:52:39.195Z,1.2
2023-03-28T00:53:55.490Z,1.5
2023-03-28T00:55:11.791Z,1.2
2023-03-28T00:56:27.098Z,1.2
2023-03-28T00:57:43.394Z,1
2023-03-28T00:58:59.703Z,1
2023-03-28T01:00:15.984Z,1.4
2023-03-28T01:01:32.274Z,1
2023-03-28T01:02:48.581Z,1.1
2023-03-28T01:04:04.862Z,1
2023-03-28T01:05:21.161Z,1.3
2023-03-28T01:06:37.447Z,1.1
2023-03-28T01:07:53.749Z,1
2023-03-28T01:09:10.035Z,1.2
2023-03-28T01:10:26.332Z,1.2
2023-03-28T01:11:42.629Z,1.2
2023-03-28T01:12:57.938Z,1.4
2023-03-28T01:14:14.233Z,1.2
2023-03-28T01:15:30.537Z,1
2023-03-28T01:16:46.826Z,1.2
2023-03-28T01:18:03.125Z,1.2
2023-03-28T01:19:19.413Z,1.4
2023-03-28T01:20:35.713Z,1.8
2023-03-28T01:21:51.999Z,1.6
2023-03-28T01:23:08.292Z,1.1
2023-03-28T01:24:24.583Z,1.2
2023-03-28T01:25:40.886Z,1.3
2023-03-28T01:26:57.169Z,1.5
2023-03-28T01:28:13.469Z,1.4
2023-03-28T01:29:28.784Z,1.2
2023-03-28T01:30:45.079Z,1.2
2023-03-28T01:32:01.374Z,1.8
2023-03-28T01:33:17.656Z,1.1
2023-03-28T01:34:33.953Z,2.4
2023-03-28T01:35:50.248Z,1
2023-03-28T01:37:06.537Z,1.5
2023-03-28T01:38:22.834Z,1.9
2023-03-28T01:39:39.125Z,1.2
2023-03-28T01:40:55.419Z,1.3
2023-03-28T01:42:11.718Z,1.2
2023-03-28T01:43:28.011Z,1.4
2023-03-28T01:44:44.318Z,1.3
2023-03-28T01:45:59.625Z,1.5
2023-03-28T01:47:15.910Z,1.7
2023-03-28T01:48:32.200Z,1.3
2023-03-28T01:49:48.495Z,2.1
2023-03-28T01:51:04.788Z,1.5
2023-03-28T01:52:21.097Z,1.4
2023-03-28T01:53:37.385Z,2.1
2023-03-28T01:54:53.670Z,2
2023-03-28T01:56:09.969Z,1.3
2023-03-28T01:57:26.256Z,1.4
2023-03-28T01:58:42.557Z,1.3
2023-03-28T01:59:58.848Z,1.5
2023-03-28T02:01:15.150Z,1.4
2023-03-28T02:02:30.457Z,1.4
2023-03-28T02:03:46.749Z,1.3
2023-03-28T02:05:03.037Z,1.4
2023-03-28T02:06:19.334Z,1.5
2023-03-28T02:07:35.643Z,1.5
2023-03-28T02:08:51.930Z,1.5
2023-03-28T02:10:08.230Z,1.5
2023-03-28T02:11:24.514Z,1.6
2023-03-28T02:12:40.802Z,1.5
2023-03-28T02:13:57.101Z,1.4
2023-03-28T02:15:13.389Z,1.4
2023-03-28T02:16:29.683Z,1.7
2023-03-28T02:17:45.977Z,1.6
2023-03-28T02:19:01.286Z,1.4
2023-03-28T02:20:17.581Z,1.4
2023-03-28T02:21:33.879Z,1.3
2023-03-28T02:22:50.166Z,1.7
2023-03-28T02:24:06.468Z,1.7
2023-03-28T02:25:22.763Z,1.8
2023-03-28T02:26:39.059Z,1.5
2023-03-28T02:27:55.355Z,2.1
2023-03-28T02:29:11.642Z,2
2023-03-28T02:30:27.931Z,2
2023-03-28T02:31:44.233Z,2.2
2023-03-28T02:33:00.521Z,1.8
2023-03-28T02:34:16.830Z,1.8
2023-03-28T02:35:32.136Z,1.6
2023-03-28T02:36:48.420Z,1.5
2023-03-28T02:38:04.711Z,1.8
2023-03-28T02:39:21.007Z,1.6
2023-03-28T02:40:37.304Z,2.1
2023-03-28T02:41:53.608Z,2.6
2023-03-28T02:43:09.889Z,1.9
2023-03-28T02:44:26.182Z,1.6
2023-03-28T02:45:42.480Z,1.6
2023-03-28T02:46:58.786Z,1.7
2023-03-28T02:48:15.068Z,1.7
2023-03-28T02:49:31.364Z,1.6
2023-03-28T02:50:47.657Z,1.5
2023-03-28T02:52:02.960Z,1.9
2023-03-28T02:53:19.266Z,2
2023-03-28T02:54:35.548Z,1.5
2023-03-28T02:55:51.861Z,1.7
2023-03-28T02:57:08.149Z,1.7
2023-03-28T02:58:24.434Z,1.9
2023-03-28T02:59:40.740Z,1.7
2023-03-28T03:00:57.020Z,1.6
2023-03-28T03:02:13.326Z,1.7
2023-03-28T03:03:29.614Z,2
2023-03-28T03:04:45.909Z,2
2023-03-28T03:06:02.207Z,1.8
2023-03-28T03:07:18.488Z,1.9
2023-03-28T03:08:33.805Z,1.9
2023-03-28T03:09:50.108Z,1.7
2023-03-28T03:11:06.391Z,1.9
2023-03-28T03:12:22.690Z,2.1
2023-03-28T03:13:38.985Z,2.5
2023-03-28T03:14:55.267Z,1.9
2023-03-28T03:16:11.569Z,1.9
2023-03-28T03:17:27.856Z,2.2
2023-03-28T03:18:44.154Z,2.5
2023-03-28T03:20:00.460Z,1.8
2023-03-28T03:21:16.741Z,2.3
2023-03-28T03:22:33.041Z,1.8
2023-03-28T03:23:49.340Z,1.7
2023-03-28T03:25:04.641Z,2.4
2023-03-28T03:26:20.939Z,1.9
2023-03-28T03:27:37.228Z,2.2
2023-03-28T03:28:53.526Z,2
2023-03-28T03:30:09.814Z,1.8
2023-03-28T03:31:26.117Z,2
2023-03-28T03:32:42.400Z,1.8
2023-03-28T03:33:58.696Z,2.9
2023-03-28T03:35:14.994Z,2.7
2023-03-28T03:36:31.285Z,2.2
2023-03-28T03:37:47.591Z,2.2
2023-03-28T03:39:03.881Z,2.5
2023-03-28T03:40:20.175Z,1.8
2023-03-28T03:41:35.479Z,2.3
2023-03-28T03:42:51.773Z,2.2
2023-03-28T03:44:08.069Z,2.6
2023-03-28T03:45:24.368Z,2.2
2023-03-28T03:46:40.659Z,2.1
2023-03-28T03:47:56.949Z,2.2
2023-03-28T03:49:13.251Z,2
2023-03-28T03:50:29.532Z,2.4
2023-03-28T03:51:45.837Z,1.8
2023-03-28T03:53:02.128Z,2.3
2023-03-28T03:54:18.414Z,2.5
2023-03-28T03:55:34.719Z,2.4
2023-03-28T03:56:51.013Z,2.2
2023-03-28T03:58:06.317Z,2.1
2023-03-28T03:59:22.609Z,2.4
2023-03-28T04:00:38.902Z,2.1
2023-03-28T04:01:55.211Z,2.1
2023-03-28T04:03:11.500Z,2
2023-03-28T04:04:27.792Z,1.9
2023-03-28T04:05:44.080Z,2.5
2023-03-28T04:07:00.374Z,1.9
2023-03-28T04:08:16.678Z,1.9
2023-03-28T04:09:32.958Z,2.3
2023-03-28T04:10:49.259Z,2.2
2023-03-28T04:12:05.555Z,2.1
2023-03-28T04:13:21.840Z,1.7
2023-03-28T04:14:37.158Z,2.1
2023-03-28T04:15:53.460Z,2.3
2023-03-28T04:17:09.753Z,1.7
2023-03-28T04:18:26.046Z,2.2
2023-03-28T04:19:42.332Z,2.1
2023-03-28T04:20:58.634Z,2
2023-03-28T04:22:14.921Z,1.7
2023-03-28T04:23:31.212Z,2
2023-03-28T04:24:47.511Z,1.8
2023-03-28T04:26:03.803Z,1.9
2023-03-28T04:27:20.105Z,2
2023-03-28T04:28:36.333Z,2
2023-03-28T04:29:52.635Z,1.7
2023-03-28T04:31:07.904Z,1.9
2023-03-28T04:32:24.149Z,2
2023-03-28T04:33:40.447Z,2.4
2023-03-28T04:34:56.733Z,2.2
2023-03-28T04:36:12.981Z,2
2023-03-28T04:37:29.226Z,1.7
2023-03-28T04:38:45.471Z,2.5
2023-03-28T04:40:01.721Z,1.8
2023-03-28T04:41:17.946Z,2.1
2023-03-28T04:42:34.190Z,2.2
2023-03-28T04:43:50.429Z,2.2
2023-03-28T04:45:06.669Z,2.2
2023-03-28T04:46:22.903Z,2.1
2023-03-28T04:47:38.162Z,2.2
2023-03-28T04:48:54.418Z,2.4
2023-03-28T04:50:10.645Z,2
2023-03-28T04:51:26.884Z,2.4
2023-03-28T04:52:43.132Z,3.2
2023-03-28T04:53:59.378Z,2.1
2023-03-28T04:55:15.613Z,1.9
2023-03-28T04:56:31.851Z,2
2023-03-28T04:57:48.085Z,2
2023-03-28T04:59:04.339Z,3.3
2023-03-28T05:00:20.572Z,2.3
2023-03-28T05:01:36.811Z,2
2023-03-28T05:02:53.048Z,2.5
2023-03-28T05:04:08.306Z,2.3
2023-03-28T05:05:24.549Z,2.1
2023-03-28T05:06:40.793Z,2.2
2023-03-28T05:07:57.016Z,2
2023-03-28T05:09:13.268Z,2.5
2023-03-28T05:10:29.500Z,1.9
2023-03-28T05:11:44.769Z,1.7
2023-03-28T05:13:01.007Z,1.9
2023-03-28T05:14:17.240Z,2.1
2023-03-28T05:15:33.484Z,2.1
2023-03-28T05:16:49.731Z,1.8
2023-03-28T05:18:05.963Z,2
2023-03-28T05:19:22.197Z,2.1
2023-03-28T05:20:38.450Z,2.3
2023-03-28T05:21:54.695Z,2.4
2023-03-28T05:23:10.922Z,1.9
2023-03-28T05:24:27.162Z,1.8
2023-03-28T05:25:43.409Z,2.1
2023-03-28T05:26:59.658Z,2
2023-03-28T05:28:14.900Z,2.2
2023-03-28T05:29:31.143Z,2.3
2023-03-28T05:30:47.379Z,2.3
2023-03-28T05:32:03.625Z,2.2
2023-03-28T05:33:19.865Z,2.2
2023-03-28T05:34:36.096Z,2.5
2023-03-28T05:35:52.337Z,2.2
2023-03-28T05:37:08.580Z,2.1
2023-03-28T05:38:24.823Z,3.1
2023-03-28T05:39:41.068Z,2.2
2023-03-28T05:40:57.304Z,2.8
2023-03-28T05:42:13.543Z,2.6
2023-03-28T05:43:29.780Z,2.6
2023-03-28T05:44:45.031Z,3.1
2023-03-28T05:46:01.280Z,2.9
2023-03-28T05:47:17.523Z,2.9
2023-03-28T05:48:33.764Z,2.4
2023-03-28T05:49:50.003Z,4.4
2023-03-28T05:51:06.240Z,2.4
2023-03-28T05:52:22.474Z,5.4
2023-03-28T05:53:38.734Z,6.5
2023-03-28T05:54:54.955Z,4.8
2023-03-28T05:56:11.206Z,3.9
2023-03-28T05:57:27.442Z,3.2
2023-03-28T05:58:43.686Z,3.2
2023-03-28T05:59:59.916Z,3.4
2023-03-28T06:01:15.181Z,3.3
2023-03-28T06:02:31.422Z,3.3
2023-03-28T06:03:47.657Z,5
2023-03-28T06:05:03.897Z,3.2
2023-03-28T06:06:20.137Z,2.6
2023-03-28T06:07:36.373Z,2.5
2023-03-28T06:08:52.628Z,2.9
2023-03-28T06:10:08.852Z,2.6
2023-03-28T06:11:25.099Z,2.9
2023-03-28T06:12:41.338Z,3.7
2023-03-28T06:13:57.576Z,2.9
2023-03-28T06:15:13.812Z,4.2
2023-03-28T06:16:30.056Z,4.3
2023-03-28T06:17:45.310Z,4.1
2023-03-28T06:19:01.549Z,2.4
2023-03-28T06:20:17.785Z,3.5
2023-03-28T06:21:34.039Z,3.6
2023-03-28T06:22:50.272Z,6.9
2023-03-28T06:24:06.519Z,3.2
2023-03-28T06:25:22.756Z,2.2
2023-03-28T06:26:38.994Z,2.2
2023-03-28T06:27:55.226Z,2.5
2023-03-28T06:29:11.483Z,2.4
2023-03-28T06:30:27.718Z,2.4
2023-03-28T06:31:43.951Z,2.6
2023-03-28T06:33:00.188Z,2.5
2023-03-28T06:34:15.458Z,2.2
2023-03-28T06:35:31.685Z,2.4
2023-03-28T06:36:47.932Z,2.1
2023-03-28T06:38:04.166Z,2.4
2023-03-28T06:39:20.425Z,2.4
2023-03-28T06:40:36.659Z,2.1
2023-03-28T06:41:52.902Z,1.8
2023-03-28T06:43:09.130Z,1.7
2023-03-28T06:44:25.372Z,1.9
2023-03-28T06:45:41.610Z,1.9
2023-03-28T06:46:57.842Z,1.9
2023-03-28T06:48:14.099Z,2.2
2023-03-28T06:49:30.325Z,2
2023-03-28T06:50:45.593Z,3.2
2023-03-28T06:52:01.833Z,1.8
2023-03-28T06:53:18.061Z,3.2
2023-03-28T06:54:34.306Z,1.9
2023-03-28T06:55:50.542Z,3
2023-03-28T06:57:06.786Z,1.6
2023-03-28T06:58:23.025Z,2.9
2023-03-28T06:59:39.273Z,2.7
2023-03-28T07:00:55.507Z,2
2023-03-28T07:02:11.750Z,2.6
2023-03-28T07:03:27.989Z,3
2023-03-28T07:04:44.226Z,1.9
2023-03-28T07:06:00.466Z,2.4
2023-03-28T07:07:15.721Z,1.7
2023-03-28T07:08:31.969Z,2
2023-03-28T07:09:48.198Z,2.1
2023-03-28T07:11:04.440Z,1.9
2023-03-28T07:12:20.677Z,2
2023-03-28T07:13:36.930Z,2.2
2023-03-28T07:14:53.159Z,1.9
2023-03-28T07:16:09.400Z,1.8
2023-03-28T07:17:25.641Z,1.9
2023-03-28T07:18:41.883Z,1.9
2023-03-28T07:19:58.125Z,2.5
2023-03-28T07:21:14.365Z,3.2
2023-03-28T07:22:30.595Z,6.4
2023-03-28T07:23:46.977Z,2.1
2023-03-28T07:25:03.212Z,2.4
2023-03-28T07:26:19.449Z,1.6
2023-03-28T07:27:35.681Z,5
2023-03-28T07:28:51.927Z,2.2
2023-03-28T07:30:08.156Z,3.2
2023-03-28T07:31:24.396Z,1.6
2023-03-28T07:32:40.639Z,3
2023-03-28T07:33:56.886Z,1.6
2023-03-28T07:35:13.124Z,3.6
2023-03-28T07:36:29.357Z,2.9
2023-03-28T07:37:45.597Z,2
2023-03-28T07:39:01.839Z,2.9
2023-03-28T07:40:17.090Z,2.8
2023-03-28T07:41:33.329Z,2.3
2023-03-28T07:42:49.572Z,2.6
2023-03-28T07:44:05.819Z,3.5
2023-03-28T07:45:22.054Z,1.1
2023-03-28T07:46:38.306Z,1.5
2023-03-28T07:47:54.543Z,1.6
2023-03-28T07:49:10.790Z,2
2023-03-28T07:50:27.009Z,1.5
2023-03-28T07:51:43.263Z,1.3
2023-03-28T07:52:59.490Z,1.3
2023-03-28T07:54:15.741Z,1.5
2023-03-28T07:55:31.982Z,1.5
2023-03-28T07:56:47.234Z,1.8
2023-03-28T07:58:03.468Z,1.3
2023-03-28T07:59:19.705Z,1.4
2023-03-28T08:00:35.950Z,1.8
2023-03-28T08:01:52.188Z,1.9
2023-03-28T08:03:08.434Z,1.7
2023-03-28T08:04:24.669Z,2.2
2023-03-28T08:05:40.920Z,1.8
2023-03-28T08:06:57.150Z,1.4
2023-03-28T08:08:13.401Z,1.9
2023-03-28T08:09:29.638Z,2
2023-03-28T08:10:45.867Z,1.4
2023-03-28T08:12:02.105Z,1.7
2023-03-28T08:13:17.375Z,1.3
2023-03-28T08:14:33.600Z,2.1
2023-03-28T08:15:49.862Z,1.2
2023-03-28T08:17:06.096Z,1.2
2023-03-28T08:18:22.337Z,1.4
2023-03-28T08:19:38.559Z,1.3
2023-03-28T08:20:54.811Z,1.5
2023-03-28T08:22:11.057Z,1.5
2023-03-28T08:23:27.281Z,1.4
2023-03-28T08:24:43.522Z,1.5
2023-03-28T08:25:59.762Z,1.2
2023-03-28T08:27:16.019Z,1.2
2023-03-28T08:28:32.246Z,1.7
2023-03-28T08:29:47.501Z,1.6
2023-03-28T08:31:03.740Z,2
2023-03-28T08:32:19.977Z,1.8
2023-03-28T08:33:36.230Z,2
2023-03-28T08:34:52.479Z,1.8
2023-03-28T08:36:08.708Z,1.6
2023-03-28T08:37:24.948Z,1.3
2023-03-28T08:38:41.185Z,1.8
2023-03-28T08:39:57.415Z,1.5
2023-03-28T08:41:13.662Z,1.6
2023-03-28T08:42:29.905Z,1.9
2023-03-28T08:43:46.147Z,2
2023-03-28T08:45:02.387Z,1.7
2023-03-28T08:46:17.643Z,1.9
2023-03-28T08:47:33.883Z,1.7
2023-03-28T08:48:50.115Z,1.6
2023-03-28T08:50:06.353Z,1.3
2023-03-28T08:51:22.589Z,1.7
2023-03-28T08:52:38.834Z,1.5
2023-03-28T08:53:55.087Z,1.4
2023-03-28T08:55:11.318Z,1.7
2023-03-28T08:56:27.561Z,1.3
2023-03-28T08:57:43.799Z,1.8
2023-03-28T08:59:00.039Z,1.7
2023-03-28T09:00:16.276Z,2.3
2023-03-28T09:01:32.508Z,1.5
2023-03-28T09:02:47.778Z,1.3
2023-03-28T09:04:04.010Z,1.4
2023-03-28T09:05:20.243Z,1.5
2023-03-28T09:06:36.488Z,1.4
2023-03-28T09:07:52.724Z,1.2
2023-03-28T09:09:08.970Z,1.3
2023-03-28T09:10:25.203Z,1.1
2023-03-28T09:11:41.448Z,1.3
2023-03-28T09:12:57.680Z,1.3
2023-03-28T09:14:13.932Z,1.5
2023-03-28T09:15:30.165Z,1.4
2023-03-28T09:16:46.406Z,1.6
2023-03-28T09:18:02.657Z,1.4
2023-03-28T09:19:17.913Z,1.7
2023-03-28T09:20:34.135Z,1.8
2023-03-28T09:21:50.377Z,1.9
2023-03-28T09:23:06.623Z,1.6
2023-03-28T09:24:22.858Z,1.4
2023-03-28T09:25:39.103Z,1.7
2023-03-28T09:26:54.370Z,1.5
2023-03-28T09:28:10.609Z,1.9
2023-03-28T09:29:26.837Z,1.7
2023-03-28T09:30:43.082Z,1.6
2023-03-28T09:31:59.320Z,2.5
2023-03-28T09:33:15.572Z,1.6
2023-03-28T09:34:31.806Z,2.2
2023-03-28T09:35:48.045Z,2
2023-03-28T09:37:04.296Z,1.9
2023-03-28T09:38:20.519Z,1.9
2023-03-28T09:39:36.763Z,1.7
2023-03-28T09:40:53.002Z,2.2
2023-03-28T09:42:09.241Z,1.5
2023-03-28T09:43:24.499Z,1.8
2023-03-28T09:44:40.741Z,1.7
2023-03-28T09:45:56.979Z,1.7
2023-03-28T09:47:13.215Z,1.4
2023-03-28T09:48:29.455Z,1.7
2023-03-28T09:49:45.699Z,1.8
2023-03-28T09:51:01.928Z,1.5
2023-03-28T09:52:18.174Z,1.9
2023-03-28T09:53:34.415Z,2.4
2023-03-28T09:54:50.658Z,1.6
2023-03-28T09:56:06.894Z,1.3
2023-03-28T09:57:23.128Z,1.6
2023-03-28T09:58:39.366Z,2.2
2023-03-28T09:59:54.626Z,1.7
2023-03-28T10:01:10.868Z,1.5
2023-03-28T10:02:27.104Z,1.5
2023-03-28T10:03:43.351Z,1.8
2023-03-28T10:04:59.589Z,1.6
2023-03-28T10:06:15.834Z,1.8
2023-03-28T10:07:32.068Z,1.8
2023-03-28T10:08:48.296Z,1.8
2023-03-28T10:10:04.548Z,1.7
2023-03-28T10:11:20.779Z,2.1
2023-03-28T10:12:37.017Z,1.4
2023-03-28T10:13:53.266Z,1.7
2023-03-28T10:15:09.502Z,1.6
2023-03-28T10:16:24.760Z,1.8
2023-03-28T10:17:40.998Z,1.5
2023-03-28T10:18:57.247Z,1.9
2023-03-28T10:20:13.481Z,1.6
2023-03-28T10:21:29.717Z,1.3
2023-03-28T10:22:45.953Z,1.9
2023-03-28T10:24:02.194Z,1.7
2023-03-28T10:25:18.432Z,1.6
2023-03-28T10:26:34.672Z,1.9
2023-03-28T10:27:50.917Z,1.4
2023-03-28T10:29:07.149Z,2.1
2023-03-28T10:30:23.406Z,2
2023-03-28T10:31:39.640Z,1.8
2023-03-28T10:32:54.890Z,1.8
2023-03-28T10:34:11.142Z,1.8
2023-03-28T10:35:27.375Z,1.9
2023-03-28T10:36:43.612Z,2
2023-03-28T10:37:59.855Z,1.9
2023-03-28T10:39:16.097Z,2
2023-03-28T10:40:32.331Z,1.7
2023-03-28T10:41:48.566Z,2.1
2023-03-28T10:43:04.817Z,1.8
2023-03-28T10:44:21.057Z,1.9
2023-03-28T10:45:37.302Z,1.8
2023-03-28T10:46:53.522Z,1.7
2023-03-28T10:48:09.773Z,1.8
2023-03-28T10:49:25.030Z,1.6
2023-03-28T10:50:41.268Z,1.9
2023-03-28T10:51:57.507Z,1.6
2023-03-28T10:53:13.746Z,2
2023-03-28T10:54:29.979Z,1.7
2023-03-28T10:55:46.223Z,1.5
2023-03-28T10:57:02.466Z,1.5
2023-03-28T10:58:18.705Z,1.6
2023-03-28T10:59:34.939Z,1.3
2023-03-28T11:00:51.177Z,1.9
2023-03-28T11:02:07.425Z,1.5
2023-03-28T11:03:23.656Z,1.4
2023-03-28T11:04:39.905Z,1.4
2023-03-28T11:05:55.156Z,1.5
2023-03-28T11:07:11.393Z,1.4
2023-03-28T11:08:27.629Z,1.7
2023-03-28T11:09:43.872Z,1.8
2023-03-28T11:11:00.114Z,1.7
2023-03-28T11:12:16.355Z,1.7
2023-03-28T11:13:32.603Z,1.7
2023-03-28T11:14:48.823Z,1.5
2023-03-28T11:16:05.073Z,1.3
2023-03-28T11:17:21.321Z,1.4
2023-03-28T11:18:37.554Z,1.3
2023-03-28T11:19:53.799Z,1.6
2023-03-28T11:21:10.020Z,1.6
2023-03-28T11:22:25.283Z,1.8
2023-03-28T11:23:41.522Z,2.7
2023-03-28T11:24:57.754Z,2.1
2023-03-28T11:26:14.018Z,1.8
2023-03-28T11:27:30.247Z,2
2023-03-28T11:28:46.473Z,1.7
2023-03-28T11:30:02.729Z,2.1
2023-03-28T11:31:18.954Z,2
2023-03-28T11:32:35.195Z,2.7
2023-03-28T11:33:51.446Z,2.2
2023-03-28T11:35:07.684Z,2.5
2023-03-28T11:36:23.920Z,2
2023-03-28T11:37:40.157Z,2.5
2023-03-28T11:38:55.412Z,2.3
2023-03-28T11:40:11.663Z,2.2
2023-03-28T11:41:27.904Z,2.3
2023-03-28T11:42:44.140Z,2.1
2023-03-28T11:44:00.383Z,2.8
2023-03-28T11:45:16.605Z,2.6
2023-03-28T11:46:32.857Z,2.1
2023-03-28T11:47:49.112Z,2.3
2023-03-28T11:49:05.345Z,2.4
2023-03-28T11:50:21.567Z,2.5
2023-03-28T11:51:37.812Z,2.4
2023-03-28T11:52:54.042Z,2.6
2023-03-28T11:54:10.298Z,2.4
2023-03-28T11:55:25.544Z,2.5
2023-03-28T11:56:41.784Z,2.4
2023-03-28T11:57:58.038Z,2.6
2023-03-28T11:59:14.285Z,2.6
2023-03-28T12:00:30.510Z,2.8
2023-03-28T12:01:46.755Z,2.4
2023-03-28T12:03:03.003Z,2.3
2023-03-28T12:04:19.251Z,2.5
2023-03-28T12:05:35.480Z,2
2023-03-28T12:06:51.721Z,1.9
2023-03-28T12:08:07.945Z,1.8
2023-03-28T12:09:24.195Z,2.1
2023-03-28T12:10:40.439Z,2.5
2023-03-28T12:11:55.689Z,2.2
2023-03-28T12:13:11.930Z,2.2
2023-03-28T12:14:28.170Z,1.9
2023-03-28T12:15:44.419Z,2.3
2023-03-28T12:17:00.642Z,1.9
2023-03-28T12:18:16.894Z,1.9
2023-03-28T12:19:33.130Z,1.5
2023-03-28T12:20:49.370Z,1.8
2023-03-28T12:22:05.616Z,2.2
2023-03-28T12:23:21.848Z,1.9
2023-03-28T12:24:38.078Z,1.7
2023-03-28T12:25:54.327Z,1.8
2023-03-28T12:27:10.580Z,2.3
2023-03-28T12:28:25.824Z,2.2
2023-03-28T12:29:42.063Z,1.9
2023-03-28T12:30:58.301Z,1.7
2023-03-28T12:32:14.539Z,1.9
2023-03-28T12:33:30.775Z,2.2
2023-03-28T12:34:47.029Z,2.1
2023-03-28T12:36:03.267Z,2
2023-03-28T12:37:19.506Z,1.9
2023-03-28T12:38:35.732Z,2
2023-03-28T12:39:51.980Z,2.3
2023-03-28T12:41:08.223Z,2.2
2023-03-28T12:42:24.463Z,2.3
2023-03-28T12:43:40.705Z,1.7
2023-03-28T12:44:55.970Z,2.2
2023-03-28T12:46:12.193Z,1.9
2023-03-28T12:47:28.447Z,2.1
2023-03-28T12:48:44.689Z,2
2023-03-28T12:50:00.933Z,2.3
2023-03-28T12:51:17.152Z,2.3
2023-03-28T12:52:33.397Z,1.9
2023-03-28T12:53:49.656Z,2.3
2023-03-28T12:55:05.876Z,2
2023-03-28T12:56:22.127Z,2
2023-03-28T12:57:38.355Z,1.7
2023-03-28T12:58:54.597Z,1.8
2023-03-28T13:00:10.840Z,1.5
2023-03-28T13:01:26.101Z,2
2023-03-28T13:02:42.336Z,1.6
2023-03-28T13:03:58.586Z,2
2023-03-28T13:05:14.818Z,2.6
2023-03-28T13:06:31.057Z,2
2023-03-28T13:07:47.294Z,1.8
2023-03-28T13:09:03.534Z,1.7
2023-03-28T13:10:19.783Z,2.1
2023-03-28T13:11:36.021Z,2.3
2023-03-28T13:12:52.261Z,2.3
2023-03-28T13:14:08.505Z,2.5
2023-03-28T13:15:24.751Z,2.6
2023-03-28T13:16:40.982Z,2.1
2023-03-28T13:17:56.235Z,2.3
2023-03-28T13:19:12.489Z,2.2
2023-03-28T13:20:28.717Z,2.2
2023-03-28T13:21:44.966Z,2.4
2023-03-28T13:23:01.220Z,2.4
2023-03-28T13:24:17.439Z,2.1
2023-03-28T13:25:33.676Z,2.2
2023-03-28T13:26:49.928Z,2.3
2023-03-28T13:28:06.171Z,1.9
2023-03-28T13:29:22.409Z,2.2
2023-03-28T13:30:38.647Z,2.1
2023-03-28T13:31:54.879Z,1.8
2023-03-28T13:33:11.129Z,2.2
2023-03-28T13:34:26.387Z,2.5
2023-03-28T13:35:42.622Z,1.9
2023-03-28T13:36:58.847Z,2.2
2023-03-28T13:38:15.107Z,1.7
2023-03-28T13:39:31.350Z,2
2023-03-28T13:40:47.580Z,1.7
2023-03-28T13:42:02.842Z,1.6
2023-03-28T13:43:19.075Z,1.7
2023-03-28T13:44:35.323Z,1.6
2023-03-28T13:45:51.558Z,1.6
2023-03-28T13:47:07.792Z,2
2023-03-28T13:48:24.026Z,1.5
2023-03-28T13:49:40.290Z,1.5
2023-03-28T13:50:56.515Z,1.5
2023-03-28T13:52:12.760Z,1.6
2023-03-28T13:53:28.993Z,1.5
2023-03-28T13:54:45.227Z,1.2
2023-03-28T13:56:01.479Z,1.8
2023-03-28T13:57:17.720Z,1.7
2023-03-28T13:58:32.959Z,2.3
2023-03-28T13:59:49.203Z,1.5
2023-03-28T14:01:05.439Z,1.9
2023-03-28T14:02:21.697Z,2.9
2023-03-28T14:03:37.924Z,1.6
2023-03-28T14:04:54.176Z,3.2
2023-03-28T14:06:10.404Z,1.8
2023-03-28T14:07:26.644Z,1.9
2023-03-28T14:08:42.891Z,1.7
2023-03-28T14:09:59.122Z,1.7
2023-03-28T14:11:15.364Z,1.9
2023-03-28T14:12:31.596Z,1.9
2023-03-28T14:13:47.834Z,1.7
2023-03-28T14:15:03.112Z,2.4
2023-03-28T14:16:19.331Z,1.6
2023-03-28T14:17:35.587Z,1.7
2023-03-28T14:18:51.819Z,2.2
2023-03-28T14:20:08.061Z,1.6
2023-03-28T14:21:24.307Z,1.6
2023-03-28T14:22:40.547Z,1.8
2023-03-28T14:23:56.784Z,2.3
2023-03-28T14:25:13.021Z,1.2
2023-03-28T14:26:29.258Z,1.7
2023-03-28T14:27:45.504Z,1.7
2023-03-28T14:29:01.740Z,1.2
2023-03-28T14:30:17.996Z,1.3
2023-03-28T14:31:33.240Z,1.4
2023-03-28T14:32:49.476Z,1.5
2023-03-28T14:34:05.714Z,1.5
2023-03-28T14:35:21.952Z,2
2023-03-28T14:36:38.199Z,1.4
2023-03-28T14:37:54.439Z,1.2
2023-03-28T14:39:10.683Z,1.5
2023-03-28T14:40:26.926Z,1.3
2023-03-28T14:41:43.157Z,1.8
2023-03-28T14:42:59.400Z,1.2
2023-03-28T14:44:15.643Z,1.3
2023-03-28T14:45:31.890Z,1.3
2023-03-28T14:46:48.130Z,1.2
2023-03-28T14:48:03.377Z,1.4
2023-03-28T14:49:19.608Z,1.6
2023-03-28T14:50:35.851Z,1.4
2023-03-28T14:51:52.095Z,1.3
2023-03-28T14:53:08.334Z,1.5
2023-03-28T14:54:24.567Z,1.8
2023-03-28T14:55:40.828Z,1.2
2023-03-28T14:56:57.055Z,2.1
2023-03-28T14:58:13.300Z,1.6
2023-03-28T14:59:29.532Z,1.7
2023-03-28T15:00:45.787Z,2
2023-03-28T15:02:02.015Z,1.5
2023-03-28T15:03:18.264Z,1.4
2023-03-28T15:04:33.507Z,1.3
2023-03-28T15:05:49.767Z,1.5
2023-03-28T15:07:05.984Z,1.5
2023-03-28T15:08:22.229Z,1.5
2023-03-28T15:09:38.471Z,1.7
2023-03-28T15:10:54.711Z,1.4
2023-03-28T15:12:10.952Z,1.9
2023-03-28T15:13:27.201Z,2
2023-03-28T15:14:43.441Z,1.9
2023-03-28T15:15:59.679Z,1.8
2023-03-28T15:17:15.929Z,1.8
2023-03-28T15:18:32.145Z,1.7
2023-03-28T15:19:48.405Z,2.1
2023-03-28T15:21:03.642Z,2.4
2023-03-28T15:22:19.907Z,2
2023-03-28T15:23:36.138Z,1.6
2023-03-28T15:24:52.370Z,2.2
2023-03-28T15:26:08.611Z,1.7
2023-03-28T15:27:24.846Z,1.6
2023-03-28T15:28:41.080Z,2
2023-03-28T15:29:57.327Z,1.7
2023-03-28T15:31:13.578Z,1.6
2023-03-28T15:32:29.814Z,1.5
2023-03-28T15:33:46.045Z,1.9
2023-03-28T15:35:02.303Z,1.3
2023-03-28T15:36:18.518Z,1.4
2023-03-28T15:37:33.779Z,1.3
2023-03-28T15:38:50.019Z,1.2
2023-03-28T15:40:06.258Z,1.3
2023-03-28T15:41:22.494Z,1.9
2023-03-28T15:42:38.754Z,1.6
2023-03-28T15:43:54.979Z,3
2023-03-28T15:45:11.222Z,1.7
2023-03-28T15:46:27.476Z,1.4
2023-03-28T15:47:43.699Z,2.3
2023-03-28T15:48:59.934Z,2.4
2023-03-28T15:50:16.177Z,1.5
2023-03-28T15:51:32.424Z,1.4
2023-03-28T15:52:48.660Z,1.5
2023-03-28T15:54:03.908Z,1.4
2023-03-28T15:55:20.154Z,1.7
2023-03-28T15:56:36.398Z,2
2023-03-28T15:57:52.633Z,1.4
2023-03-28T15:59:08.873Z,1.8
2023-03-28T16:00:25.118Z,2.4
2023-03-28T16:01:41.354Z,2.3
2023-03-28T16:02:57.600Z,2.2
2023-03-28T16:04:13.833Z,4.1
2023-03-28T16:05:30.086Z,3.5
2023-03-28T16:06:46.320Z,2
2023-03-28T16:08:02.555Z,1.5
2023-03-28T16:09:18.812Z,1.3
2023-03-28T16:10:34.055Z,1.6
2023-03-28T16:11:50.297Z,1.4
2023-03-28T16:13:06.535Z,1.5
2023-03-28T16:14:22.773Z,1.5
2023-03-28T16:15:39.007Z,1.5
2023-03-28T16:16:55.268Z,2.3
2023-03-28T16:18:11.501Z,2.1
2023-03-28T16:19:27.731Z,1.8
2023-03-28T16:20:43.979Z,1.9
2023-03-28T16:22:00.224Z,1.5
2023-03-28T16:23:16.453Z,1.8
2023-03-28T16:24:32.699Z,1.8
2023-03-28T16:25:48.935Z,2
2023-03-28T16:27:05.293Z,2.8
2023-03-28T16:28:21.530Z,2
2023-03-28T16:29:37.773Z,2.2
2023-03-28T16:30:54.020Z,1.7
2023-03-28T16:32:10.256Z,1.6
2023-03-28T16:33:26.502Z,1.4
2023-03-28T16:34:42.733Z,1.8
2023-03-28T16:35:58.982Z,2.1
2023-03-28T16:37:15.215Z,2.2
2023-03-28T16:38:31.460Z,1.7
2023-03-28T16:39:47.698Z,1.6
2023-03-28T16:41:03.944Z,1.6
2023-03-28T16:42:20.175Z,1.9
2023-03-28T16:43:36.416Z,1.6
2023-03-28T16:44:51.673Z,1.7
2023-03-28T16:46:07.916Z,1.5
2023-03-28T16:47:24.154Z,1.3
2023-03-28T16:48:40.407Z,1.6
2023-03-28T16:49:56.643Z,1.4
2023-03-28T16:51:12.879Z,1.4
2023-03-28T16:52:29.109Z,2
2023-03-28T16:53:45.351Z,1.6
2023-03-28T16:55:01.594Z,1.9
2023-03-28T16:56:17.842Z,1.7
2023-03-28T16:57:34.074Z,1.7
2023-03-28T16:58:50.320Z,1.9
2023-03-28T17:00:06.552Z,1.8
2023-03-28T17:01:21.805Z,1.9
2023-03-28T17:02:38.045Z,2
2023-03-28T17:03:54.289Z,1.9
2023-03-28T17:05:10.520Z,2.8
2023-03-28T17:06:26.773Z,1.8
2023-03-28T17:07:43.001Z,1.6
2023-03-28T17:08:59.246Z,1.8
2023-03-28T17:10:15.479Z,1.7
2023-03-28T17:11:31.723Z,1.8
2023-03-28T17:12:47.974Z,1.8
2023-03-28T17:14:04.211Z,1.5
2023-03-28T17:15:20.446Z,2.2
2023-03-28T17:16:36.685Z,2.2
2023-03-28T17:17:51.938Z,2.2
2023-03-28T17:19:08.180Z,2.3
2023-03-28T17:20:24.417Z,1.9
2023-03-28T17:21:40.653Z,1.9
2023-03-28T17:22:56.900Z,2.3
2023-03-28T17:24:13.135Z,2.4
2023-03-28T17:25:29.369Z,2.1
2023-03-28T17:26:45.614Z,2
2023-03-28T17:28:01.853Z,2.5
2023-03-28T17:29:18.102Z,2.5
2023-03-28T17:30:34.344Z,2.3
2023-03-28T17:31:50.575Z,2.4
2023-03-28T17:33:06.809Z,3.4
2023-03-28T17:34:22.069Z,2.8
2023-03-28T17:35:38.313Z,3.1